Star Flyer — 9HA2512 — position and weather

sailwx.info

Track history (hours):
 
Tides and Currents Weather Stations Pressure Air Temp Water Temp Dewpoint Dewpoint Depression Visibility Wind Speed Wind Dir Waves Ship Positions

Star Flyer

Last reported at 2017-Jul-28 06:30 UTC. Time now 2017-Jul-28 06:39 UTC.
Position N 37°27' E 025°19'.

Length 112 m; draft 5.9 m.

Type: Ship. MMSI: 248785000.

Date/timePositionNaut miles runAvg speedWind from/ knotsBaromVisibWave heightAir tempDewpointWater temp
2017-Jul-28 06:30N 37°27' E 025°19'2 4.2
2017-Jul-28 06:00N 37°25' E 025°17'4 7.2
2017-Jul-28 05:30N 37°22' E 025°17'4 7.5
2017-Jul-28 05:00N 37°18' E 025°18'4 8.9
2017-Jul-28 04:31N 37°13' E 025°19'4 8.6
2017-Jul-28 04:00N 37°09' E 025°20'4 8.0
2017-Jul-28 03:30N 37°05' E 025°19'4 8.1
2017-Jul-28 03:00N 37°01' E 025°18'  
2017-Jul-20 07:38N 44°33' E 014°12'1 6.9
2017-Jul-20 07:30N 44°33' E 014°11'3 6.2
2017-Jul-20 07:00N 44°34' E 014°07'3 6.5
2017-Jul-20 06:30N 44°37' E 014°04'3 6.5
2017-Jul-20 06:00N 44°39' E 014°01'4 6.3
2017-Jul-20 05:27N 44°41' E 013°57'3 6.9
2017-Jul-20 04:59N 44°43' E 013°53'4 7.3
2017-Jul-20 04:30N 44°45' E 013°49'5 7.1
2017-Jul-20 03:51N 44°47' E 013°43'2 7.0
2017-Jul-20 03:30N 44°49' E 013°40'3 6.8
2017-Jul-20 03:00N 44°50' E 013°36'3 6.3
2017-Jul-20 02:30N 44°53' E 013°33'3 6.4
2017-Jul-20 02:00N 44°54' E 013°30'3 6.6
2017-Jul-20 01:30N 44°56' E 013°26'3 6.9
2017-Jul-20 01:00N 44°58' E 013°22'4 7.1
2017-Jul-20 00:30N 44°60' E 013°17'4 7.0
2017-Jul-20 00:00N 45°01' E 013°13'4 7.3
2017-Jul-19 23:30N 45°03' E 013°08'4 7.2
2017-Jul-19 23:00N 45°05' E 013°03'4 7.3
2017-Jul-19 22:30N 45°06' E 012°59'4 7.1
2017-Jul-19 22:00N 45°09' E 012°55'4 7.1
2017-Jul-19 21:30N 45°11' E 012°51'4 7.1
2017-Jul-19 21:00N 45°13' E 012°47'4 7.3
2017-Jul-19 20:29N 45°15' E 012°43'4 7.5
2017-Jul-19 20:00N 45°18' E 012°39'4 7.6
2017-Jul-19 19:29N 45°20' E 012°35'4 7.6
2017-Jul-19 19:00N 45°22' E 012°31'4 8.0
2017-Jul-19 18:30N 45°25' E 012°26'3 5.9
2017-Jul-19 18:00N 45°25' E 012°22'2 4.7
2017-Jul-19 17:30N 45°26' E 012°19'0 0.0
2017-Jul-19 17:01N 45°26' E 012°19'0 0.0
2017-Jul-19 16:30N 45°26' E 012°19'0 0.0
2017-Jul-19 16:00N 45°26' E 012°19'0 0.0
2017-Jul-19 15:30N 45°26' E 012°19'0 0.0
2017-Jul-19 15:01N 45°26' E 012°19'0 0.0
2017-Jul-19 14:30N 45°26' E 012°19'0 0.0
2017-Jul-19 14:00N 45°26' E 012°19'0 0.0
2017-Jul-19 13:30N 45°26' E 012°19'0 0.0
2017-Jul-19 13:00N 45°26' E 012°19'0 0.0
2017-Jul-19 12:31N 45°26' E 012°19'0 0.0
2017-Jul-19 11:57N 45°26' E 012°19'0 0.0
2017-Jul-19 11:25N 45°26' E 012°19'0 0.0
2017-Jul-19 11:01N 45°26' E 012°19'0 0.0
2017-Jul-19 10:30N 45°26' E 012°19'0 0.0
2017-Jul-19 10:00N 45°26' E 012°19'0 0.0
2017-Jul-19 09:30N 45°26' E 012°19'0 0.0
2017-Jul-19 09:00N 45°26' E 012°19'0 0.0
2017-Jul-19 08:30N 45°26' E 012°19'0 0.0
2017-Jul-19 08:01N 45°26' E 012°19'0 0.0
2017-Jul-19 07:27N 45°26' E 012°19'0 0.0
2017-Jul-19 07:00N 45°26' E 012°19'0 0.0
2017-Jul-19 06:30N 45°26' E 012°19'0 0.0
2017-Jul-19 06:01N 45°26' E 012°19'0 0.4
2017-Jul-19 05:31N 45°26' E 012°19'3 5.0
2017-Jul-19 05:01N 45°26' E 012°23'4 8.5
2017-Jul-19 04:30N 45°24' E 012°29'3 6.3
2017-Jul-19 04:00N 45°22' E 012°32'4 7.8
2017-Jul-19 03:30N 45°18' E 012°32'4 7.3
2017-Jul-19 03:00N 45°15' E 012°35'4 7.5
2017-Jul-19 02:29N 45°13' E 012°39'4 7.4
2017-Jul-19 01:59N 45°11' E 012°43'4 7.5
2017-Jul-19 01:30N 45°08' E 012°47'4 7.6
2017-Jul-19 01:00N 45°05' E 012°50'4 7.7
2017-Jul-19 00:30N 45°02' E 012°52'4 7.5
2017-Jul-19 00:00N 44°58' E 012°54'3 6.3
2017-Jul-18 23:30N 44°57' E 012°58'4 7.4
2017-Jul-18 23:00N 44°57' E 013°04'4 7.5
2017-Jul-18 22:30N 44°57' E 013°09'4 7.4
2017-Jul-18 22:00N 44°57' E 013°14'4 7.4
2017-Jul-18 21:30N 44°57' E 013°19'4 7.3
2017-Jul-18 20:58N 44°57' E 013°25'3 7.3
2017-Jul-18 20:30N 44°55' E 013°29'4 7.4
2017-Jul-18 20:00N 44°53' E 013°33'4 7.5
2017-Jul-18 19:30N 44°51' E 013°38'4 7.4
2017-Jul-18 19:00N 44°49' E 013°42'4 7.1
2017-Jul-18 18:30N 44°47' E 013°46'4 7.3
2017-Jul-18 17:59N 44°45' E 013°50'4 7.6
2017-Jul-18 17:30N 44°42' E 013°55'4 7.6
2017-Jul-18 17:00N 44°41' E 013°59'5 7.9
2017-Jul-18 16:26N 44°38' E 014°05'3 7.8
2017-Jul-18 16:00N 44°37' E 014°09'5 7.9
2017-Jul-18 15:25N 44°35' E 014°15'5 7.9
2017-Jul-18 14:51N 44°33' E 014°21'  
Track history (hours):
 
Tides and Currents Weather Stations Pressure Air Temp Water Temp Dewpoint Dewpoint Depression Visibility Wind Speed Wind Dir Waves Ship Positions

Star Flyer

Last reported at 2017-Jul-28 06:30 UTC. Time now 2017-Jul-28 06:39 UTC.
Position N 37°27' E 025°19'.

Length 112 m; draft 5.9 m.

Type: Ship. MMSI: 248785000.

Date/timePositionNaut miles runAvg speedWind from/ knotsBaromVisibWave heightAir tempDewpointWater temp
2017-Jul-28 06:30N 37°27' E 025°19'2 4.2
2017-Jul-28 06:00N 37°25' E 025°17'4 7.2
2017-Jul-28 05:30N 37°22' E 025°17'4 7.5
2017-Jul-28 05:00N 37°18' E 025°18'4 8.9
2017-Jul-28 04:31N 37°13' E 025°19'4 8.6
2017-Jul-28 04:00N 37°09' E 025°20'4 8.0
2017-Jul-28 03:30N 37°05' E 025°19'4 8.1
2017-Jul-28 03:00N 37°01' E 025°18'  
2017-Jul-20 07:38N 44°33' E 014°12'1 6.9
2017-Jul-20 07:30N 44°33' E 014°11'3 6.2
2017-Jul-20 07:00N 44°34' E 014°07'3 6.5
2017-Jul-20 06:30N 44°37' E 014°04'3 6.5
2017-Jul-20 06:00N 44°39' E 014°01'4 6.3
2017-Jul-20 05:27N 44°41' E 013°57'3 6.9
2017-Jul-20 04:59N 44°43' E 013°53'4 7.3
2017-Jul-20 04:30N 44°45' E 013°49'5 7.1
2017-Jul-20 03:51N 44°47' E 013°43'2 7.0
2017-Jul-20 03:30N 44°49' E 013°40'3 6.8
2017-Jul-20 03:00N 44°50' E 013°36'3 6.3
2017-Jul-20 02:30N 44°53' E 013°33'3 6.4
2017-Jul-20 02:00N 44°54' E 013°30'3 6.6
2017-Jul-20 01:30N 44°56' E 013°26'3 6.9
2017-Jul-20 01:00N 44°58' E 013°22'4 7.1
2017-Jul-20 00:30N 44°60' E 013°17'4 7.0
2017-Jul-20 00:00N 45°01' E 013°13'4 7.3
2017-Jul-19 23:30N 45°03' E 013°08'4 7.2
2017-Jul-19 23:00N 45°05' E 013°03'4 7.3
2017-Jul-19 22:30N 45°06' E 012°59'4 7.1
2017-Jul-19 22:00N 45°09' E 012°55'4 7.1
2017-Jul-19 21:30N 45°11' E 012°51'4 7.1
2017-Jul-19 21:00N 45°13' E 012°47'4 7.3
2017-Jul-19 20:29N 45°15' E 012°43'4 7.5
2017-Jul-19 20:00N 45°18' E 012°39'4 7.6
2017-Jul-19 19:29N 45°20' E 012°35'4 7.6
2017-Jul-19 19:00N 45°22' E 012°31'4 8.0
2017-Jul-19 18:30N 45°25' E 012°26'3 5.9
2017-Jul-19 18:00N 45°25' E 012°22'2 4.7
2017-Jul-19 17:30N 45°26' E 012°19'0 0.0
2017-Jul-19 17:01N 45°26' E 012°19'0 0.0
2017-Jul-19 16:30N 45°26' E 012°19'0 0.0
2017-Jul-19 16:00N 45°26' E 012°19'0 0.0
2017-Jul-19 15:30N 45°26' E 012°19'0 0.0
2017-Jul-19 15:01N 45°26' E 012°19'0 0.0
2017-Jul-19 14:30N 45°26' E 012°19'0 0.0
2017-Jul-19 14:00N 45°26' E 012°19'0 0.0
2017-Jul-19 13:30N 45°26' E 012°19'0 0.0
2017-Jul-19 13:00N 45°26' E 012°19'0 0.0
2017-Jul-19 12:31N 45°26' E 012°19'0 0.0
2017-Jul-19 11:57N 45°26' E 012°19'0 0.0
2017-Jul-19 11:25N 45°26' E 012°19'0 0.0
2017-Jul-19 11:01N 45°26' E 012°19'0 0.0
2017-Jul-19 10:30N 45°26' E 012°19'0 0.0
2017-Jul-19 10:00N 45°26' E 012°19'0 0.0
2017-Jul-19 09:30N 45°26' E 012°19'0 0.0
2017-Jul-19 09:00N 45°26' E 012°19'0 0.0
2017-Jul-19 08:30N 45°26' E 012°19'0 0.0
2017-Jul-19 08:01N 45°26' E 012°19'0 0.0
2017-Jul-19 07:27N 45°26' E 012°19'0 0.0
2017-Jul-19 07:00N 45°26' E 012°19'0 0.0
2017-Jul-19 06:30N 45°26' E 012°19'0 0.0
2017-Jul-19 06:01N 45°26' E 012°19'0 0.4
2017-Jul-19 05:31N 45°26' E 012°19'3 5.0
2017-Jul-19 05:01N 45°26' E 012°23'4 8.5
2017-Jul-19 04:30N 45°24' E 012°29'3 6.3
2017-Jul-19 04:00N 45°22' E 012°32'4 7.8
2017-Jul-19 03:30N 45°18' E 012°32'4 7.3
2017-Jul-19 03:00N 45°15' E 012°35'4 7.5
2017-Jul-19 02:29N 45°13' E 012°39'4 7.4
2017-Jul-19 01:59N 45°11' E 012°43'4 7.5
2017-Jul-19 01:30N 45°08' E 012°47'4 7.6
2017-Jul-19 01:00N 45°05' E 012°50'4 7.7
2017-Jul-19 00:30N 45°02' E 012°52'4 7.5
2017-Jul-19 00:00N 44°58' E 012°54'3 6.3
2017-Jul-18 23:30N 44°57' E 012°58'4 7.4
2017-Jul-18 23:00N 44°57' E 013°04'4 7.5
2017-Jul-18 22:30N 44°57' E 013°09'4 7.4
2017-Jul-18 22:00N 44°57' E 013°14'4 7.4
2017-Jul-18 21:30N 44°57' E 013°19'4 7.3
2017-Jul-18 20:58N 44°57' E 013°25'3 7.3
2017-Jul-18 20:30N 44°55' E 013°29'4 7.4
2017-Jul-18 20:00N 44°53' E 013°33'4 7.5
2017-Jul-18 19:30N 44°51' E 013°38'4 7.4
2017-Jul-18 19:00N 44°49' E 013°42'4 7.1
2017-Jul-18 18:30N 44°47' E 013°46'4 7.3
2017-Jul-18 17:59N 44°45' E 013°50'4 7.6
2017-Jul-18 17:30N 44°42' E 013°55'4 7.6
2017-Jul-18 17:00N 44°41' E 013°59'5 7.9
2017-Jul-18 16:26N 44°38' E 014°05'3 7.8
2017-Jul-18 16:00N 44°37' E 014°09'5 7.9
2017-Jul-18 15:25N 44°35' E 014°15'5 7.9
2017-Jul-18 14:51N 44°33' E 014°21'  

Dump ship's entire track history